Time;durP1;ratioP1;P1;durP2;ratioP2;P2;SDS_P1;SDS_P2;PMS_P1;PMS_P2;Temp;Humidity;BMP_temperature;BMP_pressure;BME280_temperature;BME280_humidity;BME280_pressure;Samples;Min_cycle;Max_cycle;Signal;HPM_P1;HPM_P2
2022/12/28 00:02:08;;;;;;;11.32;5.05;;;;;;;;;;4968689;28;20033;-58
2022/12/28 00:04:34;;;;;;;10.98;4.47;;;;;;;;;;4975537;28;20014;-57
2022/12/28 00:07:05;;;;;;;13.80;5.03;;;;;;;;;;5074658;27;20705;-57
2022/12/28 00:09:30;;;;;;;18.42;4.95;;;;;;;;;;5072067;28;20024;-57
2022/12/28 00:11:56;;;;;;;7.82;4.20;;;;;;;;;;5074013;28;20043;-56
2022/12/28 00:14:21;;;;;;;11.02;4.55;;;;;;;;;;5074617;28;20029;-58
2022/12/28 00:16:46;;;;;;;11.63;5.35;;;;;;;;;;5074956;28;20022;-57
2022/12/28 00:19:13;;;;;;;14.68;5.85;;;;;;;;;;5073080;28;20066;-56
2022/12/28 00:21:38;;;;;;;12.90;5.35;;;;;;;;;;5073113;28;20028;-57
2022/12/28 00:24:03;;;;;;;17.70;5.93;;;;;;;;;;5074217;28;20028;-56
2022/12/28 00:26:30;;;;;;;17.45;5.68;;;;;;;;;;5075050;28;20032;-57
2022/12/28 00:28:55;;;;;;;11.93;5.28;;;;;;;;;;5073886;28;20034;-57
2022/12/28 00:31:20;;;;;;;13.57;5.03;;;;;;;;;;5074023;28;20024;-56
2022/12/28 00:33:45;;;;;;;13.35;5.22;;;;;;;;;;5074229;28;20425;-57
2022/12/28 00:36:11;;;;;;;16.90;5.32;;;;;;;;;;5074023;28;20043;-57
2022/12/28 00:38:39;;;;;;;12.40;5.68;;;;;;;;;;5071982;28;20472;-57
2022/12/28 00:41:04;;;;;;;15.65;5.75;;;;;;;;;;5072343;28;20024;-57
2022/12/28 00:43:30;;;;;;;11.68;5.38;;;;;;;;;;5071401;28;20801;-57
2022/12/28 00:45:55;;;;;;;13.55;4.95;;;;;;;;;;5074212;28;20052;-58
2022/12/28 00:48:23;;;;;;;14.18;5.88;;;;;;;;;;5070989;28;20032;-57
2022/12/28 00:50:48;;;;;;;12.07;4.95;;;;;;;;;;5070072;28;20253;-55
2022/12/28 00:53:14;;;;;;;9.65;4.97;;;;;;;;;;5074249;28;20082;-55
2022/12/28 00:55:39;;;;;;;15.13;4.80;;;;;;;;;;5073654;28;20020;-57
2022/12/28 00:58:04;;;;;;;9.93;5.30;;;;;;;;;;5071691;28;20032;-56
2022/12/28 01:00:30;;;;;;;9.27;4.70;;;;;;;;;;5070360;28;20016;-55
2022/12/28 01:02:55;;;;;;;10.57;4.82;;;;;;;;;;5073622;28;20706;-55
2022/12/28 01:05:21;;;;;;;9.95;4.72;;;;;;;;;;5074475;28;20044;-55
2022/12/28 01:07:46;;;;;;;15.55;4.75;;;;;;;;;;5074066;28;20024;-56
2022/12/28 01:10:11;;;;;;;17.35;5.07;;;;;;;;;;5073558;28;20031;-57
2022/12/28 01:12:37;;;;;;;21.65;4.40;;;;;;;;;;5073418;28;20311;-57
2022/12/28 01:15:05;;;;;;;10.32;5.10;;;;;;;;;;5073602;28;20032;-57
2022/12/28 01:17:30;;;;;;;9.70;3.95;;;;;;;;;;5065482;28;20032;-57
2022/12/28 01:19:56;;;;;;;14.38;5.28;;;;;;;;;;5059987;28;20553;-58
2022/12/28 01:22:21;;;;;;;7.93;4.80;;;;;;;;;;5060147;28;20536;-57
2022/12/28 01:24:46;;;;;;;12.80;5.18;;;;;;;;;;5058201;28;20105;-57
2022/12/28 01:27:12;;;;;;;9.20;4.50;;;;;;;;;;5059711;28;20094;-57
2022/12/28 01:29:37;;;;;;;10.82;4.72;;;;;;;;;;5059634;28;20120;-58
2022/12/28 01:32:02;;;;;;;13.07;5.32;;;;;;;;;;5057865;28;20108;-57
2022/12/28 01:34:27;;;;;;;11.52;4.95;;;;;;;;;;5059209;28;20020;-55
2022/12/28 01:36:53;;;;;;;11.40;4.93;;;;;;;;;;5060147;28;20115;-57
2022/12/28 01:39:18;;;;;;;13.50;4.70;;;;;;;;;;5056624;28;20411;-57
2022/12/28 01:41:43;;;;;;;7.28;4.47;;;;;;;;;;5055130;28;20112;-57
2022/12/28 01:44:12;;;;;;;15.57;4.97;;;;;;;;;;5054937;28;20350;-56
2022/12/28 01:46:48;;;;;;;13.65;5.40;;;;;;;;;;5058099;28;20043;-57
2022/12/28 01:49:14;;;;;;;10.85;4.07;;;;;;;;;;5053626;28;20033;-56
2022/12/28 01:51:57;;;;;;;11.52;4.30;;;;;;;;;;5057497;28;20104;-57
2022/12/28 01:54:22;;;;;;;9.90;3.40;;;;;;;;;;5059354;28;20025;-58
2022/12/28 01:56:47;;;;;;;7.82;4.50;;;;;;;;;;5056968;28;20285;-58
2022/12/28 01:59:13;;;;;;;8.02;4.82;;;;;;;;;;5057816;28;20024;-57
2022/12/28 02:01:38;;;;;;;14.25;5.03;;;;;;;;;;5055651;28;20025;-57
2022/12/28 02:04:03;;;;;;;9.85;4.50;;;;;;;;;;5058633;28;20024;-55
2022/12/28 02:06:28;;;;;;;5.75;3.63;;;;;;;;;;5056991;28;20044;-55
2022/12/28 02:09:05;;;;;;;8.38;4.50;;;;;;;;;;5058515;28;20012;-55
2022/12/28 02:11:30;;;;;;;11.02;4.85;;;;;;;;;;5057025;28;20032;-57
2022/12/28 02:13:55;;;;;;;9.70;4.32;;;;;;;;;;5055094;28;20314;-55
2022/12/28 02:16:20;;;;;;;11.48;4.35;;;;;;;;;;5056321;28;20073;-57
2022/12/28 02:18:46;;;;;;;9.57;4.40;;;;;;;;;;5058906;28;20447;-57
2022/12/28 02:21:15;;;;;;;7.10;4.03;;;;;;;;;;5057092;28;20342;-57
2022/12/28 02:23:46;;;;;;;9.60;4.35;;;;;;;;;;5058357;28;20280;-56
2022/12/28 02:26:16;;;;;;;13.38;4.57;;;;;;;;;;5057549;28;20060;-57
2022/12/28 02:28:56;;;;;;;9.65;4.00;;;;;;;;;;5056282;28;20035;-56
2022/12/28 02:31:27;;;;;;;7.97;4.05;;;;;;;;;;5055231;28;20572;-56
2022/12/28 02:33:55;;;;;;;9.95;4.40;;;;;;;;;;5057287;28;20163;-56
2022/12/28 02:36:24;;;;;;;9.35;4.15;;;;;;;;;;5059430;28;20319;-56
2022/12/28 02:39:08;;;;;;;8.48;4.13;;;;;;;;;;5058481;28;20033;-55
2022/12/28 02:41:33;;;;;;;7.70;3.92;;;;;;;;;;5051521;28;20031;-56
2022/12/28 02:43:59;;;;;;;12.10;4.50;;;;;;;;;;5056174;28;20036;-56
2022/12/28 02:52:17;;;;;;;13.32;4.72;;;;;;;;;;5057448;28;20061;-55
2022/12/28 02:57:35;;;;;;;11.93;3.90;;;;;;;;;;5056910;28;20051;-56
2022/12/28 03:00:03;;;;;;;12.50;4.75;;;;;;;;;;5056423;28;20181;-55
2022/12/28 03:02:51;;;;;;;9.63;4.10;;;;;;;;;;5057871;28;20495;-55
2022/12/28 03:08:20;;;;;;;8.00;4.13;;;;;;;;;;5057024;28;20555;-56
2022/12/28 03:10:48;;;;;;;8.90;4.50;;;;;;;;;;5047109;28;20491;-56
2022/12/28 03:16:05;;;;;;;9.38;4.32;;;;;;;;;;5055950;28;20027;-56
2022/12/28 03:32:11;;;;;;;7.45;4.47;;;;;;;;;;5056790;28;20039;-56
2022/12/28 03:34:36;;;;;;;15.05;4.60;;;;;;;;;;5056717;28;20008;-56
2022/12/28 03:37:24;;;;;;;10.20;5.13;;;;;;;;;;5056037;28;20132;-55
2022/12/28 03:39:50;;;;;;;11.50;4.85;;;;;;;;;;5052839;28;20369;-56
2022/12/28 03:45:25;;;;;;;12.63;5.03;;;;;;;;;;5057302;28;20166;-55
2022/12/28 03:47:50;;;;;;;11.63;5.10;;;;;;;;;;5054898;28;20139;-56
2022/12/28 03:50:15;;;;;;;8.32;4.68;;;;;;;;;;5039402;28;20047;-55
2022/12/28 03:52:41;;;;;;;10.43;4.50;;;;;;;;;;5058055;28;20032;-56
2022/12/28 03:55:06;;;;;;;13.02;5.30;;;;;;;;;;5055672;28;20024;-56
2022/12/28 03:57:31;;;;;;;10.88;4.40;;;;;;;;;;5055020;28;20025;-56
2022/12/28 03:59:56;;;;;;;6.22;4.47;;;;;;;;;;5051608;28;20025;-55
2022/12/28 04:02:22;;;;;;;10.43;4.57;;;;;;;;;;5055755;28;20016;-56
2022/12/28 04:04:47;;;;;;;15.40;4.40;;;;;;;;;;5054129;28;20032;-55
2022/12/28 04:07:12;;;;;;;8.85;4.82;;;;;;;;;;5057150;28;20036;-56
2022/12/28 04:09:37;;;;;;;16.83;4.28;;;;;;;;;;5057618;28;20021;-56
2022/12/28 04:12:03;;;;;;;10.98;4.00;;;;;;;;;;5055190;28;20032;-56
2022/12/28 04:14:28;;;;;;;13.82;3.95;;;;;;;;;;5056135;28;20082;-55
2022/12/28 04:16:53;;;;;;;8.23;3.95;;;;;;;;;;5051856;28;20355;-55
2022/12/28 04:19:18;;;;;;;8.45;4.47;;;;;;;;;;5055792;28;20394;-56
2022/12/28 04:21:46;;;;;;;11.60;4.38;;;;;;;;;;5054085;28;20603;-56
2022/12/28 04:24:11;;;;;;;12.20;4.63;;;;;;;;;;5054809;28;20025;-55
2022/12/28 04:26:36;;;;;;;6.57;4.00;;;;;;;;;;5056247;28;20268;-56
2022/12/28 04:29:01;;;;;;;7.43;4.07;;;;;;;;;;5057042;28;20035;-56
2022/12/28 04:31:27;;;;;;;10.65;4.38;;;;;;;;;;5055925;28;20037;-56
2022/12/28 04:33:52;;;;;;;11.20;4.07;;;;;;;;;;5055983;28;20563;-56
2022/12/28 04:36:17;;;;;;;11.30;3.92;;;;;;;;;;5056753;28;20031;-55
2022/12/28 04:38:43;;;;;;;9.07;3.88;;;;;;;;;;5056301;28;20059;-56
2022/12/28 04:41:08;;;;;;;9.57;3.75;;;;;;;;;;5053212;28;20111;-56
2022/12/28 04:43:33;;;;;;;8.43;3.65;;;;;;;;;;5050981;28;20124;-55
2022/12/28 04:45:59;;;;;;;7.88;3.72;;;;;;;;;;5055564;28;20040;-55
2022/12/28 04:48:24;;;;;;;9.73;4.45;;;;;;;;;;5055732;28;20032;-54
2022/12/28 04:50:49;;;;;;;9.80;3.80;;;;;;;;;;5056473;28;20029;-56
2022/12/28 04:53:15;;;;;;;9.43;3.80;;;;;;;;;;5056409;28;20625;-55
2022/12/28 04:55:40;;;;;;;8.93;3.70;;;;;;;;;;5059274;28;20024;-55
2022/12/28 04:58:05;;;;;;;6.53;3.53;;;;;;;;;;5058885;28;20035;-54
2022/12/28 05:00:31;;;;;;;10.38;3.35;;;;;;;;;;5059905;28;20468;-55
2022/12/28 05:02:59;;;;;;;7.70;3.92;;;;;;;;;;5059036;28;20256;-54
2022/12/28 05:05:25;;;;;;;11.25;3.65;;;;;;;;;;5059687;28;20409;-55
2022/12/28 05:07:50;;;;;;;9.77;3.15;;;;;;;;;;5060165;28;20107;-55
2022/12/28 05:10:15;;;;;;;9.57;3.45;;;;;;;;;;5059504;28;20338;-55
2022/12/28 05:12:43;;;;;;;7.50;3.13;;;;;;;;;;5059559;28;20033;-55
2022/12/28 05:15:09;;;;;;;13.25;3.83;;;;;;;;;;5057624;28;20024;-55
2022/12/28 05:17:34;;;;;;;8.63;3.15;;;;;;;;;;5058686;28;20666;-55
2022/12/28 05:19:59;;;;;;;7.72;3.40;;;;;;;;;;5059655;28;20351;-55
2022/12/28 05:22:25;;;;;;;7.38;3.42;;;;;;;;;;5060161;28;20033;-55
2022/12/28 05:24:50;;;;;;;8.77;3.00;;;;;;;;;;5058171;28;20059;-55
2022/12/28 05:27:15;;;;;;;6.80;3.63;;;;;;;;;;5059517;28;20049;-55
2022/12/28 05:29:40;;;;;;;10.02;3.72;;;;;;;;;;5059108;28;20021;-55
2022/12/28 05:32:06;;;;;;;9.45;3.90;;;;;;;;;;5058788;28;20028;-57
2022/12/28 05:34:31;;;;;;;7.82;3.40;;;;;;;;;;5056386;28;20316;-55
2022/12/28 05:36:56;;;;;;;9.18;3.50;;;;;;;;;;5059004;28;20068;-55
2022/12/28 05:39:22;;;;;;;8.15;3.33;;;;;;;;;;5059324;28;20072;-55
2022/12/28 05:41:47;;;;;;;7.07;3.45;;;;;;;;;;5059087;28;20028;-56
2022/12/28 05:44:12;;;;;;;7.85;3.17;;;;;;;;;;5051839;28;20024;-55
2022/12/28 05:46:37;;;;;;;15.48;3.95;;;;;;;;;;5058765;28;20466;-56
2022/12/28 05:49:03;;;;;;;13.65;5.82;;;;;;;;;;5059020;28;20032;-55
2022/12/28 05:51:29;;;;;;;8.80;2.53;;;;;;;;;;5059338;28;20353;-55
2022/12/28 05:53:54;;;;;;;11.75;3.20;;;;;;;;;;5058148;28;20289;-55
2022/12/28 05:56:21;;;;;;;15.98;6.93;;;;;;;;;;5058035;28;20028;-55
2022/12/28 05:58:50;;;;;;;11.77;4.57;;;;;;;;;;5058085;28;20028;-55
2022/12/28 06:01:16;;;;;;;12.13;3.83;;;;;;;;;;5056861;28;20157;-57
2022/12/28 06:03:42;;;;;;;15.63;5.68;;;;;;;;;;5058238;28;20036;-55
2022/12/28 06:06:08;;;;;;;11.48;4.13;;;;;;;;;;5056383;28;20055;-55
2022/12/28 06:08:33;;;;;;;9.43;4.40;;;;;;;;;;5058887;28;20020;-55
2022/12/28 06:11:02;;;;;;;6.32;3.25;;;;;;;;;;5057842;28;20411;-55
2022/12/28 06:13:28;;;;;;;12.05;3.30;;;;;;;;;;5057204;28;20087;-55
2022/12/28 06:15:53;;;;;;;7.13;2.75;;;;;;;;;;5059009;28;20100;-55
2022/12/28 06:18:18;;;;;;;6.45;2.75;;;;;;;;;;5056239;28;20535;-55
2022/12/28 06:20:43;;;;;;;11.30;3.13;;;;;;;;;;5056169;28;20238;-56
2022/12/28 06:23:09;;;;;;;9.13;2.95;;;;;;;;;;5058832;28;20165;-56
2022/12/28 06:25:38;;;;;;;7.95;2.88;;;;;;;;;;5057045;28;20098;-55
2022/12/28 06:28:04;;;;;;;5.17;2.63;;;;;;;;;;5056841;28;20025;-57
2022/12/28 06:30:29;;;;;;;5.43;2.88;;;;;;;;;;5057898;28;20670;-55
2022/12/28 06:32:57;;;;;;;8.57;3.10;;;;;;;;;;5073215;28;20131;-55
2022/12/28 06:35:22;;;;;;;8.60;3.10;;;;;;;;;;5056871;28;20354;-55
2022/12/28 06:37:48;;;;;;;9.45;2.97;;;;;;;;;;5058884;28;20162;-57
2022/12/28 06:40:13;;;;;;;6.82;2.40;;;;;;;;;;5058154;28;20024;-56
2022/12/28 06:42:38;;;;;;;9.40;3.90;;;;;;;;;;5054719;28;20718;-56
2022/12/28 06:45:04;;;;;;;8.02;2.90;;;;;;;;;;5052061;28;20016;-57
2022/12/28 06:47:29;;;;;;;7.35;2.63;;;;;;;;;;5057777;28;20523;-55
2022/12/28 06:49:55;;;;;;;7.53;3.03;;;;;;;;;;5058379;28;20036;-57
2022/12/28 06:52:20;;;;;;;6.55;2.72;;;;;;;;;;5056210;28;20024;-55
2022/12/28 06:54:45;;;;;;;4.38;2.50;;;;;;;;;;5058217;28;20060;-55
2022/12/28 06:57:11;;;;;;;7.85;3.90;;;;;;;;;;5057761;28;20513;-55
2022/12/28 06:59:36;;;;;;;6.75;3.75;;;;;;;;;;5057835;28;20040;-56
2022/12/28 07:02:01;;;;;;;5.25;2.70;;;;;;;;;;5057560;28;20055;-58
2022/12/28 07:04:26;;;;;;;5.07;2.50;;;;;;;;;;5058560;28;20037;-56
2022/12/28 07:06:52;;;;;;;7.15;3.25;;;;;;;;;;5058073;28;20130;-56
2022/12/28 07:09:17;;;;;;;6.72;3.70;;;;;;;;;;5055486;28;20127;-57
2022/12/28 07:11:42;;;;;;;8.55;5.05;;;;;;;;;;5057059;28;20025;-56
2022/12/28 07:14:07;;;;;;;7.65;4.43;;;;;;;;;;5051715;28;20191;-56
2022/12/28 07:16:33;;;;;;;11.43;5.43;;;;;;;;;;5057609;28;20564;-56
2022/12/28 07:18:58;;;;;;;9.07;3.10;;;;;;;;;;5057113;28;21263;-56
2022/12/28 07:21:28;;;;;;;13.43;5.25;;;;;;;;;;5057881;28;20056;-56
2022/12/28 07:23:53;;;;;;;6.50;2.92;;;;;;;;;;5057869;28;20044;-56
2022/12/28 07:26:19;;;;;;;7.97;2.92;;;;;;;;;;5056204;28;20107;-55
2022/12/28 07:28:45;;;;;;;7.75;2.92;;;;;;;;;;5057150;28;20020;-55
2022/12/28 07:31:11;;;;;;;10.25;2.42;;;;;;;;;;5057185;28;20023;-56
2022/12/28 07:33:36;;;;;;;10.90;3.15;;;;;;;;;;5057624;28;20565;-56
2022/12/28 07:36:02;;;;;;;7.35;3.00;;;;;;;;;;5056774;28;20088;-57
2022/12/28 07:38:27;;;;;;;8.38;3.10;;;;;;;;;;5055669;28;20399;-56
2022/12/28 07:40:59;;;;;;;4.70;3.05;;;;;;;;;;5055713;28;20062;-56
2022/12/28 07:43:24;;;;;;;11.95;3.03;;;;;;;;;;5053924;28;20016;-56
2022/12/28 07:45:57;;;;;;;7.57;2.85;;;;;;;;;;5056859;28;20051;-56
2022/12/28 07:48:22;;;;;;;8.82;3.33;;;;;;;;;;5053080;28;20091;-56
2022/12/28 07:50:48;;;;;;;12.60;6.40;;;;;;;;;;5057703;28;20427;-56
2022/12/28 07:53:13;;;;;;;7.88;3.22;;;;;;;;;;5057542;28;20017;-57
2022/12/28 07:55:39;;;;;;;9.80;4.75;;;;;;;;;;5056531;28;20476;-56
2022/12/28 07:58:04;;;;;;;8.02;3.40;;;;;;;;;;5057212;28;20504;-58
2022/12/28 08:00:29;;;;;;;8.05;3.13;;;;;;;;;;5057112;28;20662;-57
2022/12/28 08:02:55;;;;;;;14.70;4.60;;;;;;;;;;5050801;28;20566;-56
2022/12/28 08:05:20;;;;;;;13.02;5.38;;;;;;;;;;5056757;28;20163;-57
2022/12/28 08:07:45;;;;;;;21.90;8.75;;;;;;;;;;5055573;28;20048;-57
2022/12/28 08:10:11;;;;;;;12.98;3.33;;;;;;;;;;5055615;28;20056;-57
2022/12/28 08:12:36;;;;;;;11.00;3.72;;;;;;;;;;5057214;28;20024;-58
2022/12/28 08:15:01;;;;;;;7.50;2.92;;;;;;;;;;5057999;28;20048;-56
2022/12/28 08:17:27;;;;;;;8.00;2.63;;;;;;;;;;5057145;28;20393;-55
2022/12/28 08:19:54;;;;;;;6.60;2.97;;;;;;;;;;5056745;28;20109;-57
2022/12/28 08:22:19;;;;;;;11.10;4.50;;;;;;;;;;5055035;28;20099;-56
2022/12/28 08:24:44;;;;;;;8.23;3.50;;;;;;;;;;5056385;28;20093;-55
2022/12/28 08:27:10;;;;;;;8.48;2.65;;;;;;;;;;5057255;28;20040;-56
2022/12/28 08:29:35;;;;;;;5.63;2.92;;;;;;;;;;5060924;28;20024;-55
2022/12/28 08:32:00;;;;;;;6.15;2.83;;;;;;;;;;5060969;28;20178;-55
2022/12/28 08:34:26;;;;;;;4.95;2.42;;;;;;;;;;5062069;28;20101;-57
2022/12/28 08:36:54;;;;;;;6.32;2.70;;;;;;;;;;5061182;28;20025;-56
2022/12/28 08:39:19;;;;;;;8.90;3.20;;;;;;;;;;5060601;28;20598;-55
2022/12/28 08:41:44;;;;;;;6.50;2.65;;;;;;;;;;5057707;28;20087;-56
2022/12/28 08:44:09;;;;;;;5.43;2.83;;;;;;;;;;5059066;28;20036;-56
2022/12/28 08:46:35;;;;;;;7.15;3.35;;;;;;;;;;5060927;28;20050;-56
2022/12/28 08:49:00;;;;;;;6.43;3.00;;;;;;;;;;5060662;28;20111;-56
2022/12/28 08:51:32;;;;;;;6.10;2.70;;;;;;;;;;5060759;28;20316;-55
2022/12/28 08:53:57;;;;;;;6.88;2.60;;;;;;;;;;5059501;28;20032;-55
2022/12/28 08:56:26;;;;;;;8.05;2.72;;;;;;;;;;5060436;28;20055;-57
2022/12/28 08:58:52;;;;;;;6.15;2.53;;;;;;;;;;5060247;28;20028;-55
2022/12/28 09:01:18;;;;;;;7.20;3.38;;;;;;;;;;5060134;28;20444;-55
2022/12/28 09:03:44;;;;;;;7.57;2.50;;;;;;;;;;5060525;28;20307;-55
2022/12/28 09:06:10;;;;;;;6.63;3.20;;;;;;;;;;5060809;28;20091;-55
2022/12/28 09:08:35;;;;;;;9.85;3.42;;;;;;;;;;5059565;28;20359;-56
2022/12/28 09:11:01;;;;;;;11.98;3.03;;;;;;;;;;5058380;28;20061;-56
2022/12/28 09:13:26;;;;;;;8.73;3.25;;;;;;;;;;5061036;28;20044;-55
2022/12/28 09:15:55;;;;;;;4.38;2.72;;;;;;;;;;5057956;28;20019;-55
2022/12/28 09:18:21;;;;;;;5.50;2.65;;;;;;;;;;5053251;28;20252;-55
2022/12/28 09:20:46;;;;;;;8.23;2.58;;;;;;;;;;5058628;28;20059;-54
2022/12/28 09:23:11;;;;;;;4.30;2.85;;;;;;;;;;5059875;28;20013;-55
2022/12/28 09:25:36;;;;;;;7.80;2.70;;;;;;;;;;5059927;28;20020;-55
2022/12/28 09:28:02;;;;;;;5.55;2.60;;;;;;;;;;5059993;28;20189;-55
2022/12/28 09:30:27;;;;;;;4.13;2.15;;;;;;;;;;5059223;28;20016;-55
2022/12/28 09:33:57;;;;;;;9.10;2.92;;;;;;;;;;5060221;28;20517;-55
2022/12/28 09:35:41;;;;;;;7.47;3.00;;;;;;;;;;5054419;28;20060;-56
2022/12/28 09:38:06;;;;;;;3.78;1.88;;;;;;;;;;5058379;28;20028;-56
2022/12/28 09:40:33;;;;;;;6.40;2.58;;;;;;;;;;5058813;28;20530;-55
2022/12/28 09:42:58;;;;;;;7.25;2.65;;;;;;;;;;5051046;28;20594;-56
2022/12/28 09:45:23;;;;;;;6.78;2.55;;;;;;;;;;5057801;28;20124;-55
2022/12/28 09:47:50;;;;;;;9.10;3.08;;;;;;;;;;5059356;28;20024;-55
2022/12/28 09:50:15;;;;;;;10.00;2.28;;;;;;;;;;5073738;28;20068;-55
2022/12/28 09:52:59;;;;;;;11.70;3.33;;;;;;;;;;5059218;28;20020;-56
2022/12/28 09:55:24;;;;;;;6.97;2.53;;;;;;;;;;5058718;28;20064;-56
2022/12/28 09:57:54;;;;;;;8.50;3.17;;;;;;;;;;5055384;28;20538;-56
2022/12/28 10:00:20;;;;;;;4.65;2.30;;;;;;;;;;5058385;28;20013;-56
2022/12/28 10:02:50;;;;;;;6.32;2.33;;;;;;;;;;5058794;28;20031;-56
2022/12/28 10:05:15;;;;;;;7.75;2.50;;;;;;;;;;5058602;28;20037;-56
2022/12/28 10:07:40;;;;;;;7.35;2.47;;;;;;;;;;5056841;28;20547;-55
2022/12/28 10:10:06;;;;;;;4.05;2.10;;;;;;;;;;5057880;28;20047;-55
2022/12/28 10:12:31;;;;;;;6.72;2.40;;;;;;;;;;5056977;28;20406;-55
2022/12/28 10:14:56;;;;;;;9.35;2.55;;;;;;;;;;5056825;28;20111;-56
2022/12/28 10:17:25;;;;;;;7.78;2.55;;;;;;;;;;5055510;28;20101;-56
2022/12/28 10:19:51;;;;;;;7.00;2.23;;;;;;;;;;5057082;28;20478;-55
2022/12/28 10:22:17;;;;;;;5.85;2.20;;;;;;;;;;5054770;28;20268;-56
2022/12/28 10:24:42;;;;;;;5.68;2.30;;;;;;;;;;5057433;28;20029;-56
2022/12/28 10:27:11;;;;;;;6.35;2.22;;;;;;;;;;5055124;28;20731;-56
2022/12/28 10:29:36;;;;;;;7.88;2.72;;;;;;;;;;5058287;28;20025;-56
2022/12/28 10:32:05;;;;;;;7.18;2.47;;;;;;;;;;5059385;28;20445;-55
2022/12/28 10:34:32;;;;;;;8.88;2.40;;;;;;;;;;5040749;28;20017;-56
2022/12/28 10:37:03;;;;;;;12.23;2.72;;;;;;;;;;5058477;28;20382;-56
2022/12/28 10:39:28;;;;;;;;;;;;;;;;;;5058162;28;20087;-55
2022/12/28 10:41:53;;;;;;;9.27;2.90;;;;;;;;;;5072711;28;20050;-56
2022/12/28 10:44:27;;;;;;;6.60;2.03;;;;;;;;;;5071972;28;20278;-55
2022/12/28 10:46:56;;;;;;;5.80;2.13;;;;;;;;;;5057824;28;20033;-56
2022/12/28 10:49:21;;;;;;;8.95;2.25;;;;;;;;;;5053436;28;20069;-55
2022/12/28 10:51:57;;;;;;;7.78;2.63;;;;;;;;;;5058416;28;20174;-56
2022/12/28 10:54:23;;;;;;;7.53;2.67;;;;;;;;;;5058362;28;20194;-56
2022/12/28 10:56:48;;;;;;;9.02;2.85;;;;;;;;;;5052266;28;20446;-56
2022/12/28 10:59:18;;;;;;;5.93;2.38;;;;;;;;;;5057470;28;20048;-57
2022/12/28 11:01:43;;;;;;;6.53;2.90;;;;;;;;;;5057369;28;20024;-55
2022/12/28 11:04:18;;;;;;;7.65;3.13;;;;;;;;;;5058267;28;20101;-56
2022/12/28 11:06:50;;;;;;;6.97;2.63;;;;;;;;;;5055960;28;20428;-55
2022/12/28 11:09:17;;;;;;;10.25;3.67;;;;;;;;;;5055181;28;20312;-56
2022/12/28 11:11:43;;;;;;;6.75;2.75;;;;;;;;;;5055741;28;20490;-53
2022/12/28 11:14:08;;;;;;;7.22;2.60;;;;;;;;;;5057791;28;20115;-55
2022/12/28 11:16:35;;;;;;;8.57;2.80;;;;;;;;;;5056869;28;20388;-56
2022/12/28 11:19:00;;;;;;;7.95;2.13;;;;;;;;;;5058129;28;20104;-55
2022/12/28 11:21:25;;;;;;;6.97;2.63;;;;;;;;;;5057823;28;20020;-56
2022/12/28 11:23:50;;;;;;;5.82;3.13;;;;;;;;;;5056162;28;20017;-56
2022/12/28 11:26:16;;;;;;;6.25;2.13;;;;;;;;;;5057678;28;20692;-55
2022/12/28 11:28:43;;;;;;;4.45;2.25;;;;;;;;;;5057832;28;20112;-56
2022/12/28 11:31:10;;;;;;;7.20;2.60;;;;;;;;;;5057456;28;20028;-55
2022/12/28 11:33:39;;;;;;;8.63;2.97;;;;;;;;;;5056315;28;20024;-56
2022/12/28 11:36:05;;;;;;;8.52;3.55;;;;;;;;;;5047785;28;20087;-55
2022/12/28 11:38:35;;;;;;;6.97;3.30;;;;;;;;;;5055730;28;20032;-56
2022/12/28 11:41:00;;;;;;;12.60;3.45;;;;;;;;;;5056464;28;20032;-55
2022/12/28 11:43:38;;;;;;;8.68;2.88;;;;;;;;;;5054539;28;20101;-57
2022/12/28 11:46:04;;;;;;;6.43;2.50;;;;;;;;;;5056202;28;20494;-55
2022/12/28 11:48:41;;;;;;;6.55;2.40;;;;;;;;;;5055859;28;20039;-56
2022/12/28 11:51:33;;;;;;;9.88;2.55;;;;;;;;;;5057448;28;20447;-56
2022/12/28 11:53:59;;;;;;;9.63;3.55;;;;;;;;;;5054388;28;20039;-55
2022/12/28 11:56:25;;;;;;;8.20;2.63;;;;;;;;;;5057535;28;20617;-56
2022/12/28 11:59:00;;;;;;;10.90;2.72;;;;;;;;;;5057594;28;20055;-56
2022/12/28 12:01:25;;;;;;;6.97;2.72;;;;;;;;;;5055370;28;20094;-56
2022/12/28 12:03:56;;;;;;;5.82;2.38;;;;;;;;;;5054995;28;20727;-55
2022/12/28 12:06:40;;;;;;;7.55;2.35;;;;;;;;;;5056673;28;20114;-55
2022/12/28 12:09:23;;;;;;;6.15;3.22;;;;;;;;;;5056885;28;20467;-55
2022/12/28 12:11:49;;;;;;;9.90;3.15;;;;;;;;;;5052503;28;20048;-55
2022/12/28 12:14:15;;;;;;;7.95;2.63;;;;;;;;;;5054484;28;20730;-55
2022/12/28 12:16:47;;;;;;;8.10;2.58;;;;;;;;;;5056742;28;20347;-55
2022/12/28 12:19:17;;;;;;;5.38;2.10;;;;;;;;;;5055130;28;20021;-55
2022/12/28 12:21:43;;;;;;;5.55;2.33;;;;;;;;;;5050874;28;20383;-56
2022/12/28 12:24:11;;;;;;;8.70;3.78;;;;;;;;;;5057471;28;20043;-55
2022/12/28 12:26:38;;;;;;;7.20;2.72;;;;;;;;;;5055246;28;20032;-55
2022/12/28 12:29:05;;;;;;;22.63;12.52;;;;;;;;;;5037632;28;20406;-55
2022/12/28 12:31:31;;;;;;;12.98;2.90;;;;;;;;;;5054596;28;20063;-55
2022/12/28 12:33:59;;;;;;;9.82;2.65;;;;;;;;;;5056286;28;20407;-56
2022/12/28 12:36:30;;;;;;;5.90;2.58;;;;;;;;;;5054859;28;20024;-55
2022/12/28 12:39:15;;;;;;;4.95;2.58;;;;;;;;;;5054379;28;20264;-56
2022/12/28 12:41:49;;;;;;;6.18;2.30;;;;;;;;;;5048192;28;20017;-56
2022/12/28 12:44:14;;;;;;;5.13;2.13;;;;;;;;;;5055717;28;20162;-55
2022/12/28 12:46:58;;;;;;;6.28;2.47;;;;;;;;;;5056897;28;20461;-55
2022/12/28 12:49:32;;;;;;;13.57;2.67;;;;;;;;;;5055795;28;20021;-56
2022/12/28 12:52:16;;;;;;;4.43;1.80;;;;;;;;;;5057312;28;20115;-54
2022/12/28 12:54:52;;;;;;;4.30;2.30;;;;;;;;;;5050717;28;20182;-56
2022/12/28 12:57:53;;;;;;;5.88;2.25;;;;;;;;;;5056007;28;20522;-56
2022/12/28 13:00:19;;;;;;;7.78;2.20;;;;;;;;;;5055769;28;20103;-55
2022/12/28 13:03:03;;;;;;;7.53;2.55;;;;;;;;;;5049862;28;20047;-56
2022/12/28 13:05:28;;;;;;;6.28;2.28;;;;;;;;;;5054518;28;20076;-56
2022/12/28 13:07:55;;;;;;;6.28;2.47;;;;;;;;;;5055384;28;20182;-55
2022/12/28 13:10:43;;;;;;;5.90;2.67;;;;;;;;;;5054851;28;20021;-56
2022/12/28 13:13:12;;;;;;;9.27;3.13;;;;;;;;;;5056856;28;20071;-55
2022/12/28 13:15:38;;;;;;;5.30;2.77;;;;;;;;;;5058702;28;20013;-56
2022/12/28 13:18:06;;;;;;;6.45;2.47;;;;;;;;;;5058383;28;20066;-57
2022/12/28 13:20:31;;;;;;;6.43;2.85;;;;;;;;;;5059996;28;20495;-55
2022/12/28 13:22:57;;;;;;;6.70;2.47;;;;;;;;;;5059470;28;20044;-55
2022/12/28 13:25:23;;;;;;;8.23;2.30;;;;;;;;;;5059491;28;20119;-56
2022/12/28 13:27:48;;;;;;;5.47;2.17;;;;;;;;;;5070888;28;20717;-56
2022/12/28 13:30:17;;;;;;;5.20;2.33;;;;;;;;;;5056696;28;20023;-55
2022/12/28 13:32:48;;;;;;;8.20;2.47;;;;;;;;;;5055079;28;20538;-57
2022/12/28 13:35:17;;;;;;;7.25;2.53;;;;;;;;;;5058628;28;20650;-57
2022/12/28 13:37:42;;;;;;;5.97;2.45;;;;;;;;;;5044963;28;20518;-56
2022/12/28 13:40:10;;;;;;;5.70;2.60;;;;;;;;;;5053130;28;20029;-55
2022/12/28 13:42:44;;;;;;;7.10;2.28;;;;;;;;;;5051121;28;20128;-56
2022/12/28 13:45:10;;;;;;;6.25;2.30;;;;;;;;;;5056082;28;20092;-55
2022/12/28 13:47:36;;;;;;;6.43;2.80;;;;;;;;;;5055595;28;20094;-55
2022/12/28 13:50:18;;;;;;;8.95;2.50;;;;;;;;;;5055301;28;20043;-55
2022/12/28 13:52:43;;;;;;;7.03;2.60;;;;;;;;;;5052901;28;20102;-54
2022/12/28 13:55:13;;;;;;;9.85;3.08;;;;;;;;;;5056612;28;20722;-55
2022/12/28 13:57:38;;;;;;;6.45;2.75;;;;;;;;;;5055386;28;20523;-55
2022/12/28 14:00:04;;;;;;;3.85;2.45;;;;;;;;;;5057227;28;20252;-55
2022/12/28 14:02:29;;;;;;;9.60;2.83;;;;;;;;;;5053916;28;20506;-55
2022/12/28 14:04:54;;;;;;;9.13;3.08;;;;;;;;;;5055915;28;20024;-55
2022/12/28 14:07:21;;;;;;;6.03;2.90;;;;;;;;;;5057773;28;20032;-55
2022/12/28 14:09:47;;;;;;;8.32;2.58;;;;;;;;;;5054381;28;20378;-55
2022/12/28 14:12:12;;;;;;;6.15;2.85;;;;;;;;;;5052347;28;20124;-56
2022/12/28 14:14:37;;;;;;;6.72;2.85;;;;;;;;;;5056430;28;20047;-55
2022/12/28 14:17:03;;;;;;;6.82;2.88;;;;;;;;;;5055716;28;20449;-55
2022/12/28 14:19:28;;;;;;;6.72;2.80;;;;;;;;;;5054902;28;20028;-56
2022/12/28 14:21:53;;;;;;;8.20;3.10;;;;;;;;;;5055051;28;20343;-56
2022/12/28 14:24:19;;;;;;;7.45;2.78;;;;;;;;;;5052710;28;20540;-56
2022/12/28 14:26:46;;;;;;;6.68;2.80;;;;;;;;;;5056412;28;20040;-55
2022/12/28 14:29:12;;;;;;;9.10;2.40;;;;;;;;;;5057260;28;20028;-56
2022/12/28 14:31:37;;;;;;;8.93;3.65;;;;;;;;;;5057093;28;20502;-57
2022/12/28 14:34:03;;;;;;;5.35;2.70;;;;;;;;;;5054534;28;20115;-56
2022/12/28 14:36:32;;;;;;;7.57;2.60;;;;;;;;;;5056758;28;20025;-54
2022/12/28 14:38:58;;;;;;;7.57;2.70;;;;;;;;;;5056191;28;20024;-61
2022/12/28 14:41:39;;;;;;;7.60;2.88;;;;;;;;;;5053751;28;20021;-55
2022/12/28 14:44:06;;;;;;;4.47;2.65;;;;;;;;;;5048257;28;20036;-55
2022/12/28 14:46:32;;;;;;;11.63;4.35;;;;;;;;;;5055202;28;20127;-55
2022/12/28 14:48:58;;;;;;;4.70;2.70;;;;;;;;;;5056669;28;20020;-55
2022/12/28 14:51:28;;;;;;;8.05;2.58;;;;;;;;;;5055693;28;20454;-55
2022/12/28 14:54:08;;;;;;;7.50;3.13;;;;;;;;;;5054855;28;20276;-54
2022/12/28 14:56:33;;;;;;;;;;;;;;;;;;5055052;28;20028;-56
2022/12/28 14:58:59;;;;;;;5.55;2.80;;;;;;;;;;5056568;28;19922;-56
2022/12/28 15:01:37;;;;;;;8.40;3.50;;;;;;;;;;5055608;28;20361;-55
2022/12/28 15:04:03;;;;;;;10.48;3.00;;;;;;;;;;5056316;28;20312;-56
2022/12/28 15:06:29;;;;;;;12.13;4.47;;;;;;;;;;5053598;28;20057;-55
2022/12/28 15:08:55;;;;;;;9.63;4.28;;;;;;;;;;5054066;28;20147;-57
2022/12/28 15:11:21;;;;;;;4.32;2.17;;;;;;;;;;5052821;28;20048;-55
2022/12/28 15:13:46;;;;;;;7.85;3.00;;;;;;;;;;5056628;28;20024;-55